Time;durP1;ratioP1;P1;durP2;ratioP2;P2;SDS_P1;SDS_P2;PMS_P1;PMS_P2;Temp;Humidity;BMP_temperature;BMP_pressure;BME280_temperature;BME280_humidity;BME280_pressure;Samples;Min_cycle;Max_cycle;Signal;HPM_P1;HPM_P2
2023/05/16 00:01:44;;;;;;;13.50;12.10;;;;;;;12.43;100.00;154551.19;4983139;28;20516;-82
2023/05/16 00:04:12;;;;;;;13.53;11.40;;;;;;;12.41;100.00;154547.31;4973294;28;20449;-82
2023/05/16 00:06:38;;;;;;;12.73;10.67;;;;;;;12.42;100.00;154549.88;4991096;28;20475;-82
2023/05/16 00:09:05;;;;;;;16.30;13.13;;;;;;;12.42;100.00;154548.56;5010534;28;20488;-82
2023/05/16 00:11:32;;;;;;;13.63;12.23;;;;;;;12.40;100.00;154543.41;4992778;28;20477;-82
2023/05/16 00:14:00;;;;;;;13.27;11.87;;;;;;;12.41;100.00;154546.00;4973053;28;20457;-82
2023/05/16 00:16:28;;;;;;;14.30;12.80;;;;;;;12.41;100.00;154547.31;4991779;28;20534;-82
2023/05/16 00:18:56;;;;;;;15.40;11.97;;;;;;;12.43;100.00;154551.19;4993619;28;20951;-82
2023/05/16 00:21:24;;;;;;;15.40;12.20;;;;;;;12.45;100.00;154557.66;4976168;28;20792;-82
2023/05/16 00:23:51;;;;;;;16.40;13.03;;;;;;;12.46;100.00;154560.28;5002447;28;20452;-82
2023/05/16 00:26:18;;;;;;;14.90;13.23;;;;;;;12.43;100.00;154551.19;5010571;28;20452;-82
2023/05/16 00:28:45;;;;;;;14.50;13.00;;;;;;;12.39;100.00;154542.09;4995760;28;20559;-82
2023/05/16 00:31:11;;;;;;;16.20;13.17;;;;;;;12.38;100.00;154539.53;5001060;28;20991;-82
2023/05/16 00:33:38;;;;;;;13.93;12.40;;;;;;;12.37;100.00;154536.91;4972746;28;20548;-82
2023/05/16 00:36:05;;;;;;;15.20;12.87;;;;;;;12.37;100.00;154536.91;4975948;28;20465;-82
2023/05/16 00:38:33;;;;;;;14.70;13.10;;;;;;;12.44;100.00;154553.78;5009188;28;20811;-82
2023/05/16 00:40:59;;;;;;;18.17;14.23;;;;;;;12.43;100.00;154551.19;4994336;28;20461;-82
2023/05/16 00:43:26;;;;;;;17.00;14.97;;;;;;;12.41;100.00;154546.00;4989728;28;20449;-82
2023/05/16 00:46:02;;;;;;;17.47;14.33;;;;;;;12.43;100.00;154551.19;4977565;28;20437;-82
2023/05/16 00:48:28;;;;;;;16.23;13.30;;;;;;;12.39;100.00;154542.09;4975098;28;20509;-82
2023/05/16 00:50:55;;;;;;;15.50;13.70;;;;;;;12.32;100.00;154522.66;4989011;28;20462;-82
2023/05/16 00:53:23;;;;;;;16.40;14.30;;;;;;;12.32;100.00;154522.66;4992574;28;20776;-82
2023/05/16 00:55:51;;;;;;;19.70;16.13;;;;;;;12.31;100.00;154520.09;4967842;28;20464;-82
2023/05/16 00:58:18;;;;;;;17.77;15.50;;;;;;;12.26;100.00;154507.13;4996285;28;20452;-82
2023/05/16 01:00:46;;;;;;;19.50;17.33;;;;;;;12.25;100.00;154504.50;4991311;28;20551;-82
2023/05/16 01:03:13;;;;;;;21.70;18.10;;;;;;;12.21;100.00;154496.72;5005149;28;20453;-82
2023/05/16 01:05:40;;;;;;;22.27;18.53;;;;;;;12.21;100.00;154496.72;5007031;28;20441;-82
2023/05/16 01:08:07;;;;;;;21.60;18.10;;;;;;;12.28;100.00;154513.59;4982159;28;20481;-82
2023/05/16 01:10:40;;;;;;;20.90;17.03;;;;;;;12.28;100.00;154512.31;5007632;28;20449;-82
2023/05/16 01:13:12;;;;;;;25.90;19.03;;;;;;;12.30;100.00;154517.47;4991769;28;20531;-82
2023/05/16 01:15:45;;;;;;;19.10;16.23;;;;;;;12.28;100.00;154512.31;4992269;28;20495;-82
2023/05/16 01:18:16;;;;;;;20.73;17.53;;;;;;;12.25;100.00;154504.50;4982541;28;20527;-82
2023/05/16 01:20:47;;;;;;;24.90;18.07;;;;;;;12.26;100.00;154507.13;4997051;28;20449;-82
2023/05/16 01:23:30;;;;;;;22.33;18.90;;;;;;;12.17;100.00;154486.38;4970241;28;20450;-82
2023/05/16 01:26:05;;;;;;;20.37;18.20;;;;;;;12.13;100.00;154475.97;4975391;28;20480;-82
2023/05/16 01:28:32;;;;;;;22.43;17.90;;;;;;;12.14;100.00;154478.59;4995143;28;20471;-82
2023/05/16 01:30:59;;;;;;;22.23;18.00;;;;;;;12.11;100.00;154470.81;4989218;28;20464;-82
2023/05/16 01:33:26;;;;;;;21.23;18.37;;;;;;;12.05;100.00;154453.94;5009737;28;20830;-82
2023/05/16 01:36:12;;;;;;;22.83;19.37;;;;;;;12.02;100.00;154447.44;4973715;28;20460;-82
2023/05/16 01:38:42;;;;;;;21.23;18.90;;;;;;;12.01;100.00;154444.91;4993174;28;20428;-82
2023/05/16 01:41:16;;;;;;;25.73;20.33;;;;;;;12.03;100.00;154448.75;4983029;28;20448;-82
2023/05/16 01:43:44;;;;;;;24.63;19.60;;;;;;;11.98;100.00;154437.09;4973311;28;20507;-82
2023/05/16 01:46:13;;;;;;;24.63;20.80;;;;;;;11.96;100.00;154431.94;4968906;28;20481;-82
2023/05/16 01:48:44;;;;;;;26.57;21.10;;;;;;;11.95;100.00;154429.31;4974355;28;20476;-82
2023/05/16 01:51:12;;;;;;;27.43;21.50;;;;;;;11.91;100.00;154418.97;4975535;28;20567;-82
2023/05/16 01:53:39;;;;;;;28.77;22.70;;;;;;;11.91;100.00;154417.66;5005587;28;20514;-82
2023/05/16 01:56:11;;;;;;;26.63;21.60;;;;;;;11.86;100.00;154405.97;4989156;28;20457;-82
2023/05/16 01:58:40;;;;;;;30.07;22.20;;;;;;;11.83;100.00;154398.22;4975427;28;20443;-82
2023/05/16 02:01:07;;;;;;;27.10;21.17;;;;;;;11.82;100.00;154395.63;4980088;28;20464;-81
2023/05/16 02:03:34;;;;;;;25.67;20.80;;;;;;;11.79;100.00;154387.84;4985737;28;20457;-82
2023/05/16 02:06:01;;;;;;;27.50;21.93;;;;;;;11.79;100.00;154387.84;4972074;28;20460;-82
2023/05/16 02:08:28;;;;;;;32.30;23.00;;;;;;;11.78;100.00;154383.97;4990186;28;20476;-82
2023/05/16 02:10:55;;;;;;;28.20;20.80;;;;;;;11.73;100.00;154372.28;4986503;28;20834;-82
2023/05/16 02:13:23;;;;;;;31.03;23.13;;;;;;;11.70;100.00;154364.53;5009311;28;20543;-82
2023/05/16 02:15:50;;;;;;;29.40;22.47;;;;;;;11.67;100.00;154356.72;4982431;28;20562;-82
2023/05/16 02:18:17;;;;;;;28.40;22.33;;;;;;;11.67;100.00;154356.72;5008700;28;20870;-82
2023/05/16 02:20:44;;;;;;;28.57;23.27;;;;;;;11.66;100.00;154354.09;4986092;28;20501;-82
2023/05/16 02:23:10;;;;;;;28.47;22.60;;;;;;;11.65;100.00;154351.50;4995587;28;20441;-82
2023/05/16 02:25:37;;;;;;;35.27;24.23;;;;;;;11.67;100.00;154356.72;4991994;28;20464;-82
2023/05/16 02:28:26;;;;;;;34.83;24.53;;;;;;;11.68;100.00;154359.28;5008059;28;20457;-82
2023/05/16 02:30:59;;;;;;;32.30;24.93;;;;;;;11.62;100.00;154343.75;4988815;28;20514;-82
2023/05/16 02:33:26;;;;;;;31.40;23.53;;;;;;;11.60;100.00;154338.53;5007091;28;20464;-82
2023/05/16 02:35:53;;;;;;;29.27;23.60;;;;;;;11.57;100.00;154330.75;4990956;28;20550;-82
2023/05/16 02:38:19;;;;;;;31.73;23.90;;;;;;;11.53;100.00;154321.72;4987577;28;20472;-82
2023/05/16 02:40:46;;;;;;;33.33;24.63;;;;;;;11.54;100.00;154324.28;5010669;28;20467;-82
2023/05/16 02:43:13;;;;;;;29.80;22.83;;;;;;;11.57;100.00;154330.75;5007775;28;20445;-82
2023/05/16 02:45:41;;;;;;;33.87;25.30;;;;;;;11.57;100.00;154332.06;4982672;28;20464;-82
2023/05/16 02:48:07;;;;;;;30.67;23.20;;;;;;;11.59;100.00;154335.97;4982485;28;20460;-82
2023/05/16 02:50:34;;;;;;;33.83;23.80;;;;;;;11.61;100.00;154341.16;4990314;28;20461;-82
2023/05/16 02:53:01;;;;;;;34.00;22.67;;;;;;;11.59;100.00;154335.97;4971571;28;20982;-82
2023/05/16 02:55:28;;;;;;;30.70;23.77;;;;;;;11.54;100.00;154324.28;4989674;28;20453;-82
2023/05/16 02:57:55;;;;;;;29.40;22.17;;;;;;;11.55;100.00;154325.59;4996357;28;20605;-81
2023/05/16 03:00:22;;;;;;;28.40;23.90;;;;;;;11.57;100.00;154330.75;5012681;28;20443;-82
2023/05/16 03:02:50;;;;;;;29.80;22.97;;;;;;;11.58;100.00;154333.38;4993981;28;20522;-82
2023/05/16 03:05:17;;;;;;;32.10;24.00;;;;;;;11.55;100.00;154325.59;4974620;28;20481;-82
2023/05/16 03:07:43;;;;;;;34.90;24.87;;;;;;;11.53;100.00;154321.72;4979034;28;20638;-82
2023/05/16 03:10:10;;;;;;;31.53;24.43;;;;;;;11.55;100.00;154325.59;5012741;28;20484;-82
2023/05/16 03:12:38;;;;;;;32.80;23.80;;;;;;;11.50;100.00;154313.94;4990029;28;20582;-82
2023/05/16 03:15:08;;;;;;;32.47;22.70;;;;;;;11.52;100.00;154319.09;4974914;28;20547;-82
2023/05/16 03:17:36;;;;;;;32.43;24.40;;;;;;;11.48;100.00;154307.47;4996922;28;20465;-82
2023/05/16 03:20:07;;;;;;;33.37;24.13;;;;;;;11.48;100.00;154307.47;5011296;28;20439;-82
2023/05/16 03:22:34;;;;;;;38.47;25.97;;;;;;;11.45;100.00;154300.97;4989558;28;20864;-82
2023/05/16 03:25:01;;;;;;;29.70;23.17;;;;;;;11.42;100.00;154293.19;5007948;28;20832;-82
2023/05/16 03:27:28;;;;;;;34.17;26.10;;;;;;;11.39;100.00;154284.13;4995482;28;20456;-82
2023/05/16 03:29:54;;;;;;;33.60;24.17;;;;;;;11.38;100.00;154281.56;5011335;28;20471;-81
2023/05/16 03:32:21;;;;;;;37.63;24.80;;;;;;;11.34;100.00;154272.47;4979221;28;20481;-82
2023/05/16 03:34:47;;;;;;;32.23;24.40;;;;;;;11.31;100.00;154263.38;4987189;28;20469;-82
2023/05/16 03:37:15;;;;;;;33.10;24.17;;;;;;;11.29;100.00;154258.22;4992373;28;20461;-82
2023/05/16 03:39:42;;;;;;;32.93;25.07;;;;;;;11.27;100.00;154253.03;4977964;28;20450;-81
2023/05/16 03:42:09;;;;;;;32.70;23.83;;;;;;;11.21;100.00;154238.78;5010285;28;20463;-82
2023/05/16 03:44:35;;;;;;;39.90;26.00;;;;;;;11.19;100.00;154233.63;4995055;28;20455;-82
2023/05/16 03:47:02;;;;;;;41.60;29.80;;;;;;;11.14;100.00;154220.66;4990578;28;20460;-81
2023/05/16 03:49:28;;;;;;;33.90;24.77;;;;;;;11.13;100.00;154216.75;5010425;28;20483;-82
2023/05/16 03:51:55;;;;;;;34.00;25.70;;;;;;;11.19;100.00;154232.31;4991192;28;20455;-82
2023/05/16 03:54:23;;;;;;;40.50;27.40;;;;;;;11.17;100.00;154227.16;4984718;28;20571;-82
2023/05/16 03:56:50;;;;;;;39.93;29.70;;;;;;;11.17;100.00;154227.16;5010145;28;20971;-81
2023/05/16 03:59:16;;;;;;;37.80;25.87;;;;;;;11.17;100.00;154228.44;4984932;28;20543;-81
2023/05/16 04:01:43;;;;;;;37.00;27.67;;;;;;;11.16;100.00;154224.53;4989104;28;21027;-82
2023/05/16 04:04:09;;;;;;;39.00;26.00;;;;;;;11.18;100.00;154231.00;5008688;28;20460;-82
2023/05/16 04:06:36;;;;;;;38.20;25.90;;;;;;;11.15;100.00;154221.94;5012510;28;20451;-82
2023/05/16 04:09:06;;;;;;;37.40;27.23;;;;;;;11.11;100.00;154211.59;5006728;28;24444;-82
2023/05/16 04:11:35;;;;;;;40.23;27.33;;;;;;;11.16;100.00;154224.53;5005473;28;20490;-82
2023/05/16 04:14:01;;;;;;;37.30;27.17;;;;;;;11.16;100.00;154224.53;5010644;28;20845;-82
2023/05/16 04:16:28;;;;;;;38.90;27.90;;;;;;;11.15;100.00;154221.94;5011291;28;20969;-81
2023/05/16 04:18:55;;;;;;;39.80;26.30;;;;;;;11.18;100.00;154229.72;5005557;28;20454;-82
2023/05/16 04:21:22;;;;;;;38.23;26.67;;;;;;;11.15;100.00;154221.94;4980951;28;20550;-81
2023/05/16 04:23:48;;;;;;;38.03;28.63;;;;;;;11.18;100.00;154229.72;5007282;28;20901;-81
2023/05/16 04:26:15;;;;;;;35.30;25.10;;;;;;;11.20;100.00;154236.19;4986018;28;20456;-82
2023/05/16 04:28:43;;;;;;;39.83;29.47;;;;;;;11.19;100.00;154232.31;4998619;28;20455;-81
2023/05/16 04:31:09;;;;;;;44.37;30.77;;;;;;;11.20;100.00;154236.19;5005781;28;20463;-82
2023/05/16 04:33:36;;;;;;;47.97;30.00;;;;;;;11.25;100.00;154249.13;5004540;28;20526;-82
2023/05/16 04:36:04;;;;;;;39.20;27.97;;;;;;;11.24;100.00;154245.25;5007553;28;20970;-81
2023/05/16 04:38:31;;;;;;;40.20;26.40;;;;;;;11.26;100.00;154250.44;5004580;28;20890;-81
2023/05/16 04:40:58;;;;;;;41.43;29.57;;;;;;;11.26;100.00;154251.75;5009485;28;20481;-82
2023/05/16 04:43:26;;;;;;;42.03;26.23;;;;;;;11.28;100.00;154255.66;5006043;28;20507;-82
2023/05/16 04:45:54;;;;;;;41.60;28.40;;;;;;;11.33;100.00;154268.59;4991486;28;20971;-82
2023/05/16 04:48:21;;;;;;;36.53;26.70;;;;;;;11.32;100.00;154266.00;4991496;28;20447;-82
2023/05/16 04:50:47;;;;;;;40.80;25.30;;;;;;;11.34;100.00;154271.16;5010246;28;20836;-82
2023/05/16 04:53:14;;;;;;;40.60;27.47;;;;;;;11.39;100.00;154284.13;4993496;28;20436;-82
2023/05/16 04:55:41;;;;;;;36.07;25.20;;;;;;;11.42;100.00;154293.19;5002353;28;20466;-82
2023/05/16 04:58:08;;;;;;;37.50;26.00;;;;;;;11.46;100.00;154302.28;5002525;28;20466;-82
2023/05/16 05:00:34;;;;;;;36.00;25.07;;;;;;;11.48;100.00;154307.47;4988600;28;20463;-82
2023/05/16 05:03:02;;;;;;;38.10;28.00;;;;;;;11.48;100.00;154307.47;4989763;28;20460;-82
2023/05/16 05:05:29;;;;;;;41.10;28.77;;;;;;;11.49;100.00;154310.06;4989099;28;20506;-83
2023/05/16 05:07:55;;;;;;;33.40;25.17;;;;;;;11.54;100.00;154323.03;4969032;28;20477;-82
2023/05/16 05:10:22;;;;;;;34.70;25.33;;;;;;;11.52;100.00;154317.81;4990631;28;20503;-82
2023/05/16 05:12:48;;;;;;;34.40;25.40;;;;;;;11.58;100.00;154333.38;5001463;28;21080;-82
2023/05/16 05:15:15;;;;;;;38.47;27.43;;;;;;;11.57;100.00;154330.75;4993603;28;20455;-82
2023/05/16 05:17:41;;;;;;;35.83;23.20;;;;;;;11.58;100.00;154333.38;4997683;28;20474;-82
2023/05/16 05:20:11;;;;;;;36.53;25.83;;;;;;;11.61;100.00;154341.16;5008369;28;20974;-82
2023/05/16 05:22:37;;;;;;;36.93;26.00;;;;;;;11.63;100.00;154346.31;5011040;28;20550;-82
2023/05/16 05:25:05;;;;;;;38.87;27.00;;;;;;;11.59;100.00;154337.28;4977537;28;20793;-82
2023/05/16 05:27:32;;;;;;;36.80;25.30;;;;;;;11.58;100.00;154333.38;4970316;28;20454;-82
2023/05/16 05:29:59;;;;;;;38.90;26.50;;;;;;;11.63;100.00;154347.63;4993784;28;20487;-82
2023/05/16 05:32:25;;;;;;;34.70;25.17;;;;;;;11.63;100.00;154346.31;4994297;28;20468;-82
2023/05/16 05:34:52;;;;;;;38.23;28.23;;;;;;;11.61;100.00;154341.16;4968888;28;20824;-82
2023/05/16 05:37:20;;;;;;;34.43;24.40;;;;;;;11.60;100.00;154339.84;4992811;28;20496;-82
2023/05/16 05:39:47;;;;;;;35.93;27.40;;;;;;;11.63;100.00;154346.31;4997878;28;20460;-82
2023/05/16 05:42:13;;;;;;;37.80;27.40;;;;;;;11.66;100.00;154352.78;4989685;28;20453;-82
2023/05/16 05:44:40;;;;;;;36.37;26.50;;;;;;;11.65;100.00;154351.50;4967196;28;20456;-82
2023/05/16 05:47:07;;;;;;;35.10;25.63;;;;;;;11.71;100.00;154365.81;4986617;28;20460;-82
2023/05/16 05:49:34;;;;;;;35.77;26.20;;;;;;;11.71;100.00;154365.81;4992521;28;20479;-82
2023/05/16 05:52:01;;;;;;;38.13;25.93;;;;;;;11.73;100.00;154372.28;5004301;28;20479;-83
2023/05/16 05:54:30;;;;;;;38.90;26.70;;;;;;;11.74;100.00;154373.59;4982344;28;20460;-83
2023/05/16 05:56:57;;;;;;;38.13;24.90;;;;;;;11.73;100.00;154372.28;4999401;28;20519;-83
2023/05/16 05:59:23;;;;;;;36.00;24.60;;;;;;;11.74;100.00;154373.59;4984169;28;20483;-82
2023/05/16 06:01:52;;;;;;;31.13;21.30;;;;;;;11.71;100.00;154365.81;4998401;28;20475;-82
2023/05/16 06:04:19;;;;;;;34.23;23.90;;;;;;;11.74;100.00;154374.88;4999817;28;20459;-83
2023/05/16 06:06:46;;;;;;;36.57;25.30;;;;;;;11.72;100.00;154369.72;4987491;28;20466;-83
2023/05/16 06:09:13;;;;;;;39.80;27.20;;;;;;;11.73;100.00;154371.03;4989015;28;20878;-82
2023/05/16 06:11:42;;;;;;;33.60;24.90;;;;;;;11.74;100.00;154374.88;4980424;28;20481;-83
2023/05/16 06:14:08;;;;;;;32.37;24.33;;;;;;;11.73;100.00;154371.03;5004513;28;20535;-83
2023/05/16 06:16:35;;;;;;;32.93;22.43;;;;;;;11.72;100.00;154369.72;4987347;28;20881;-82
2023/05/16 06:19:01;;;;;;;32.40;22.97;;;;;;;11.68;100.00;154359.28;4991829;28;20495;-82
2023/05/16 06:21:28;;;;;;;36.40;25.53;;;;;;;11.73;100.00;154371.03;4988572;28;20456;-82
2023/05/16 06:23:54;;;;;;;37.00;23.93;;;;;;;11.72;100.00;154368.41;5006418;28;20461;-82
2023/05/16 06:26:22;;;;;;;33.83;24.33;;;;;;;11.72;100.00;154368.41;5003784;28;20557;-82
2023/05/16 06:28:50;;;;;;;32.90;25.80;;;;;;;11.75;100.00;154377.50;4992680;28;20941;-82
2023/05/16 06:31:16;;;;;;;34.10;24.70;;;;;;;11.78;100.00;154385.22;5011466;28;20484;-82
2023/05/16 06:33:43;;;;;;;33.43;22.97;;;;;;;11.84;100.00;154400.78;4989605;28;20453;-82
2023/05/16 06:36:10;;;;;;;32.10;23.30;;;;;;;11.75;100.00;154377.50;4992105;28;20555;-82
2023/05/16 06:38:36;;;;;;;32.03;24.30;;;;;;;11.73;100.00;154372.28;5012544;28;20451;-83
2023/05/16 06:41:03;;;;;;;34.47;24.17;;;;;;;11.76;100.00;154380.06;4985176;28;20460;-83
2023/05/16 06:43:30;;;;;;;31.30;22.33;;;;;;;11.78;100.00;154385.22;4995316;28;20439;-83
2023/05/16 06:45:58;;;;;;;28.03;21.50;;;;;;;11.81;100.00;154391.75;4999813;28;20464;-83
2023/05/16 06:48:24;;;;;;;32.77;22.80;;;;;;;11.87;100.00;154407.28;4985958;28;20452;-83
2023/05/16 06:50:56;;;;;;;33.93;23.20;;;;;;;11.91;100.00;154418.97;5011904;28;20483;-83
2023/05/16 06:53:26;;;;;;;30.63;22.13;;;;;;;11.87;100.00;154408.56;5012232;28;20443;-83
2023/05/16 06:55:53;;;;;;;31.37;22.07;;;;;;;11.91;100.00;154418.97;5012251;28;20488;-83
2023/05/16 06:58:19;;;;;;;31.33;21.70;;;;;;;11.94;100.00;154426.72;4987041;28;20462;-83
2023/05/16 07:00:46;;;;;;;33.10;20.60;;;;;;;11.92;100.00;154421.53;5012056;28;20526;-83
2023/05/16 07:03:14;;;;;;;28.07;21.53;;;;;;;11.88;100.00;154411.19;4994361;28;20460;-82
2023/05/16 07:05:41;;;;;;;29.30;22.83;;;;;;;11.92;100.00;154420.22;4998228;28;20448;-82
2023/05/16 07:08:08;;;;;;;26.67;19.50;;;;;;;11.91;100.00;154417.66;5008400;28;20581;-83
2023/05/16 07:10:35;;;;;;;26.93;20.00;;;;;;;11.91;100.00;154418.97;5011372;28;21024;-82
2023/05/16 07:13:03;;;;;;;25.97;21.00;;;;;;;11.81;100.00;154393.00;4988043;28;20480;-82
2023/05/16 07:15:30;;;;;;;28.47;21.17;;;;;;;11.87;100.00;154407.28;5010902;28;20454;-82
2023/05/16 07:17:56;;;;;;;26.70;21.07;;;;;;;11.88;100.00;154411.19;4994196;28;20823;-82
2023/05/16 07:20:25;;;;;;;26.40;19.93;;;;;;;11.94;100.00;154426.72;5010270;28;20460;-82
2023/05/16 07:22:51;;;;;;;29.70;19.80;;;;;;;11.92;100.00;154421.53;4987786;28;20559;-81
2023/05/16 07:25:18;;;;;;;26.77;21.30;;;;;;;11.94;100.00;154425.47;5008393;28;20510;-81
2023/05/16 07:27:50;;;;;;;26.23;20.60;;;;;;;11.97;100.00;154433.19;5000239;28;20451;-81
2023/05/16 07:30:16;;;;;;;29.00;20.90;;;;;;;12.00;100.00;154442.28;4981814;28;20807;-81
2023/05/16 07:32:43;;;;;;;24.53;20.90;;;;;;;12.04;100.00;154452.69;5003562;28;20560;-82
2023/05/16 07:35:12;;;;;;;23.50;19.47;;;;;;;12.03;100.00;154450.06;4986524;28;20467;-81
2023/05/16 07:37:41;;;;;;;23.83;18.20;;;;;;;12.08;100.00;154463.03;5007602;28;20468;-81
2023/05/16 07:40:09;;;;;;;20.80;16.93;;;;;;;12.12;100.00;154472.13;5000488;28;20538;-82
2023/05/16 07:42:35;;;;;;;22.67;17.83;;;;;;;12.14;100.00;154478.59;4984125;28;20471;-80
2023/05/16 07:45:02;;;;;;;19.83;16.17;;;;;;;12.10;100.00;154468.19;5008722;28;20456;-82
2023/05/16 07:47:29;;;;;;;17.70;13.43;;;;;;;12.09;100.00;154464.31;4984530;28;22052;-82
2023/05/16 07:49:55;;;;;;;17.93;15.93;;;;;;;12.09;100.00;154464.31;4987203;28;20480;-82
2023/05/16 07:52:22;;;;;;;16.23;13.20;;;;;;;12.13;100.00;154474.66;4987151;28;20465;-82
2023/05/16 07:54:50;;;;;;;18.70;12.80;;;;;;;12.12;100.00;154473.41;5003565;28;20543;-82
2023/05/16 07:57:16;;;;;;;14.43;11.33;;;;;;;12.09;100.00;154465.63;5005306;28;20971;-82
2023/05/16 07:59:43;;;;;;;15.53;12.43;;;;;;;12.15;100.00;154479.91;4999390;28;20540;-82
2023/05/16 08:02:10;;;;;;;14.50;12.17;;;;;;;12.18;100.00;154488.94;4981620;28;20453;-82
2023/05/16 08:04:37;;;;;;;16.10;13.20;;;;;;;12.26;100.00;154507.13;4988706;28;20476;-82
2023/05/16 08:07:04;;;;;;;14.60;12.20;;;;;;;12.28;100.00;154513.59;4998868;28;20468;-82
2023/05/16 08:09:31;;;;;;;15.23;11.57;;;;;;;12.25;100.00;154504.50;4970610;28;20456;-81
2023/05/16 08:12:02;;;;;;;12.33;10.67;;;;;;;12.16;100.00;154483.78;4992260;28;20489;-81
2023/05/16 08:14:30;;;;;;;13.30;11.23;;;;;;;12.21;100.00;154496.72;4984299;28;20460;-82
2023/05/16 08:16:57;;;;;;;13.07;11.57;;;;;;;12.19;100.00;154490.25;4991073;28;20449;-81
2023/05/16 08:19:23;;;;;;;13.03;11.23;;;;;;;12.19;100.00;154491.56;5000393;28;20466;-82
2023/05/16 08:21:50;;;;;;;12.43;10.60;;;;;;;12.17;100.00;154486.38;4993459;28;20465;-81
2023/05/16 08:24:17;;;;;;;13.57;11.57;;;;;;;12.05;100.00;154455.25;4980935;28;20662;-81
2023/05/16 08:26:44;;;;;;;14.50;11.33;;;;;;;12.02;100.00;154447.44;4990313;28;20474;-82
2023/05/16 08:29:11;;;;;;;13.37;11.17;;;;;;;12.03;100.00;154450.06;5007726;28;20459;-81
2023/05/16 08:31:39;;;;;;;12.47;10.97;;;;;;;11.97;100.00;154433.19;4986957;28;20903;-81
2023/05/16 08:34:06;;;;;;;14.27;12.07;;;;;;;11.95;100.00;154428.00;4984671;28;21078;-82
2023/05/16 08:36:33;;;;;;;13.30;11.13;;;;;;;12.01;100.00;154444.91;5006561;28;20811;-81
2023/05/16 08:39:00;;;;;;;15.03;11.43;;;;;;;12.01;100.00;154443.59;4991220;28;20873;-81
2023/05/16 08:41:26;;;;;;;14.00;11.17;;;;;;;12.05;100.00;154453.94;4981539;28;21055;-82
2023/05/16 08:43:53;;;;;;;13.10;10.37;;;;;;;12.01;100.00;154444.91;4994431;28;20514;-82
2023/05/16 08:46:22;;;;;;;14.30;12.00;;;;;;;12.02;100.00;154447.44;5008917;28;20859;-82
2023/05/16 08:48:52;;;;;;;14.50;12.77;;;;;;;12.02;100.00;154447.44;4985207;28;20922;-81
2023/05/16 08:51:19;;;;;;;18.23;12.37;;;;;;;11.98;100.00;154435.81;4988944;28;20547;-82
2023/05/16 08:54:00;;;;;;;14.37;11.60;;;;;;;11.89;100.00;154413.75;4983984;28;20452;-82
2023/05/16 08:56:27;;;;;;;19.10;13.57;;;;;;;11.81;100.00;154391.75;4992206;28;20447;-82
2023/05/16 08:58:54;;;;;;;17.00;13.70;;;;;;;11.76;100.00;154380.06;4985489;28;20459;-81
2023/05/16 09:01:22;;;;;;;15.57;12.93;;;;;;;11.72;100.00;154369.72;5008790;28;20467;-81
2023/05/16 09:03:49;;;;;;;19.10;14.20;;;;;;;11.77;100.00;154381.38;5008267;28;20466;-82
2023/05/16 09:06:15;;;;;;;16.27;13.43;;;;;;;11.80;100.00;154390.44;5000799;28;20460;-82
2023/05/16 09:08:42;;;;;;;19.13;15.73;;;;;;;11.76;100.00;154380.06;5004878;28;20546;-82
2023/05/16 09:11:09;;;;;;;16.40;13.73;;;;;;;11.76;100.00;154380.06;5000362;28;20489;-82
2023/05/16 09:13:37;;;;;;;17.70;12.70;;;;;;;11.67;100.00;154356.72;4985912;28;20456;-82
2023/05/16 09:16:12;;;;;;;21.53;15.50;;;;;;;11.53;100.00;154320.41;4999854;28;20467;-82
2023/05/16 09:18:40;;;;;;;19.33;15.07;;;;;;;11.40;100.00;154286.72;5010129;28;20467;-82
2023/05/16 09:21:07;;;;;;;19.80;15.00;;;;;;;11.33;100.00;154268.59;4994070;28;20451;-81
2023/05/16 09:23:34;;;;;;;18.07;14.23;;;;;;;11.26;100.00;154250.44;4998880;28;20450;-81
2023/05/16 09:26:01;;;;;;;21.83;16.30;;;;;;;11.27;100.00;154253.03;5007473;28;20936;-81
2023/05/16 09:28:27;;;;;;;20.80;16.60;;;;;;;11.30;100.00;154260.81;4985619;28;20500;-81
2023/05/16 09:30:57;;;;;;;19.77;14.63;;;;;;;11.32;100.00;154266.00;4991405;28;20487;-81
2023/05/16 09:33:24;;;;;;;21.93;16.77;;;;;;;11.35;100.00;154273.78;4997436;28;20513;-81
2023/05/16 09:35:57;;;;;;;20.57;15.43;;;;;;;11.38;100.00;154281.56;4991362;28;20478;-81
2023/05/16 09:38:24;;;;;;;24.17;16.17;;;;;;;11.38;100.00;154282.84;5008011;28;20556;-81
2023/05/16 09:40:52;;;;;;;22.03;17.27;;;;;;;11.39;100.00;154284.13;5009118;28;20904;-81
2023/05/16 09:43:25;;;;;;;20.13;16.33;;;;;;;11.40;100.00;154288.03;5007724;28;20458;-81
2023/05/16 09:45:52;;;;;;;22.57;16.53;;;;;;;11.47;100.00;154304.84;5006734;28;20463;-81
2023/05/16 09:48:19;;;;;;;23.13;16.97;;;;;;;11.47;100.00;154304.84;5008770;28;20484;-81
2023/05/16 09:50:51;;;;;;;21.23;15.77;;;;;;;11.45;100.00;154300.97;4987321;28;20617;-81
2023/05/16 09:53:26;;;;;;;24.03;16.50;;;;;;;11.46;100.00;154302.28;5002054;28;20439;-81
2023/05/16 09:56:00;;;;;;;20.87;16.30;;;;;;;11.49;100.00;154311.31;5003120;28;20836;-81
2023/05/16 09:58:28;;;;;;;27.63;17.87;;;;;;;11.54;100.00;154323.03;5003939;28;20463;-81
2023/05/16 10:00:56;;;;;;;24.23;16.97;;;;;;;11.60;100.00;154338.53;5002263;28;20462;-81
2023/05/16 10:03:23;;;;;;;20.10;17.07;;;;;;;11.71;100.00;154367.09;5002647;28;20465;-81
2023/05/16 10:05:51;;;;;;;26.10;19.27;;;;;;;11.81;100.00;154391.75;5001794;28;20475;-81
2023/05/16 10:08:20;;;;;;;19.57;16.23;;;;;;;11.84;100.00;154400.78;5003506;28;20481;-81
2023/05/16 10:10:50;;;;;;;24.40;16.80;;;;;;;11.83;100.00;154398.22;5005791;28;20487;-81
2023/05/16 10:13:17;;;;;;;25.90;17.60;;;;;;;11.77;100.00;154382.66;5003919;28;20463;-81
2023/05/16 10:15:45;;;;;;;21.47;15.93;;;;;;;11.76;100.00;154380.06;4985376;28;20475;-81
2023/05/16 10:18:13;;;;;;;20.27;15.27;;;;;;;11.73;100.00;154372.28;5002745;28;21008;-81
2023/05/16 10:20:42;;;;;;;23.50;16.20;;;;;;;11.69;100.00;154360.63;4972817;28;20565;-81
2023/05/16 10:23:09;;;;;;;23.73;17.60;;;;;;;11.65;100.00;154351.50;5007143;28;20546;-81
2023/05/16 10:25:41;;;;;;;24.50;18.43;;;;;;;11.71;100.00;154367.09;4983818;28;20463;-81
2023/05/16 10:28:08;;;;;;;25.50;17.47;;;;;;;11.78;100.00;154385.22;5006595;28;20875;-81
2023/05/16 10:30:35;;;;;;;26.40;18.50;;;;;;;11.87;100.00;154407.28;4988450;28;20456;-81
2023/05/16 10:33:03;;;;;;;22.47;17.53;;;;;;;11.96;100.00;154431.94;4983607;28;20453;-81
2023/05/16 10:35:29;;;;;;;22.93;16.60;;;;;;;12.02;100.00;154447.44;5002007;28;20456;-81
2023/05/16 10:37:56;;;;;;;23.83;17.00;;;;;;;11.95;100.00;154429.31;5002953;28;20483;-82
2023/05/16 10:40:24;;;;;;;21.73;14.20;;;;;;;11.94;100.00;154425.47;5002956;28;20449;-81
2023/05/16 10:43:00;;;;;;;22.10;15.63;;;;;;;12.01;100.00;154444.91;5002180;28;20560;-81
2023/05/16 10:45:27;;;;;;;23.80;17.03;;;;;;;12.13;100.00;154475.97;4988794;28;20455;-81
2023/05/16 10:47:55;;;;;;;20.60;15.40;;;;;;;12.32;100.00;154522.66;5006785;28;20448;-81
2023/05/16 10:50:34;;;;;;;20.43;14.40;;;;;;;12.40;100.00;154544.69;5001955;28;20517;-81
2023/05/16 10:53:15;;;;;;;24.60;16.30;;;;;;;12.37;100.00;154536.91;5003490;28;20940;-80
2023/05/16 10:55:45;;;;;;;23.63;17.30;;;;;;;12.25;100.00;154505.81;4982482;28;20491;-80
2023/05/16 10:58:19;;;;;;;26.40;15.97;;;;;;;12.19;100.00;154491.56;5001180;28;22018;-81
2023/05/16 11:00:47;;;;;;;20.83;15.83;;;;;;;12.16;100.00;154483.78;4985146;28;20824;-81
2023/05/16 11:03:24;;;;;;;21.80;15.70;;;;;;;12.17;100.00;154485.06;5004533;28;20463;-81
2023/05/16 11:05:53;;;;;;;23.50;16.87;;;;;;;12.17;100.00;154486.38;4995166;28;20859;-81